Terminal Aerodrome Forecast
Issued by NWS

Home | Current Version | Previous Version | Text Only | Print | Product List | Glossary Off
Versions: 1 2 3 4 5 6 7 8 9 10 11 12 13 14 15 16 17 18 19 20 21 22 23 24 25 26 27 28 29

000
FTUS43 KLOT 231515 AAA
TAFMDW
TAF AMD
KMDW 231515Z 2315/2412 16004KT P6SM BKN035 BKN250
     FM231700 09008KT P6SM VCTS BKN035CB BKN250
     FM232100 11007KT P6SM SCT050 BKN250
     FM241000 18009KT P6SM -SHRA SCT040 OVC100=

USA.gov is the U.S. government's official web portal to all federal, state and local government web resources and services.